createdAt,value
2019-05-13T00:02:08.892Z,100085.43
2019-05-13T00:04:39.505Z,100089.09
2019-05-13T00:07:10.676Z,100089.75
2019-05-13T00:09:44.112Z,100096.66
2019-05-13T00:12:13.829Z,100089.95
2019-05-13T00:14:44.717Z,100092.21
2019-05-13T00:17:15.333Z,100100.18
2019-05-13T00:19:45.895Z,100099.56
2019-05-13T00:22:16.928Z,100097.25
2019-05-13T00:24:47.540Z,100094.64
2019-05-13T00:27:18.245Z,100099.69
2019-05-13T00:29:48.840Z,100099.52
2019-05-13T00:32:19.451Z,100107.55
2019-05-13T00:34:50.593Z,100100.30
2019-05-13T00:37:21.205Z,100101.27
2019-05-13T00:39:54.195Z,100105.61
2019-05-13T00:42:24.698Z,100102.63
2019-05-13T00:44:55.438Z,100096.77
2019-05-13T00:47:25.972Z,100097.02
2019-05-13T00:49:56.569Z,100096.16
2019-05-13T00:52:27.278Z,100096.42
2019-05-13T00:54:58.059Z,100094.95
2019-05-13T00:57:28.653Z,100099.99
2019-05-13T00:59:59.295Z,100104.15
2019-05-13T01:02:29.909Z,100101.78
2019-05-13T01:05:00.643Z,100101.97
2019-05-13T01:07:33.992Z,100105.98
2019-05-13T01:10:04.346Z,100112.51
2019-05-13T01:12:35.032Z,100108.04
2019-05-13T01:15:07.347Z,100113.04
2019-05-13T01:17:38.035Z,100110.80
2019-05-13T01:20:09.029Z,100110.59
2019-05-13T01:22:40.157Z,100105.84
2019-05-13T01:25:11.129Z,100113.89
2019-05-13T01:27:44.192Z,100105.02
2019-05-13T01:30:14.731Z,100105.70
2019-05-13T01:32:45.348Z,100111.98
2019-05-13T01:35:15.959Z,100115.39
2019-05-13T01:37:46.650Z,100115.57
2019-05-13T01:40:17.255Z,100116.75
2019-05-13T01:42:47.996Z,100113.09
2019-05-13T01:45:18.720Z,100119.86
2019-05-13T01:47:49.572Z,100111.76
2019-05-13T01:50:20.210Z,100121.38
2019-05-13T01:52:53.240Z,100111.08
2019-05-13T01:55:24.425Z,100111.20
2019-05-13T01:57:55.518Z,100112.56
2019-05-13T02:00:26.441Z,100114.09
2019-05-13T02:02:57.381Z,100115.13
2019-05-13T02:05:29.477Z,100113.28
2019-05-13T02:08:00.872Z,100110.55
2019-05-13T02:10:54.375Z,100110.00
2019-05-13T02:13:25.333Z,100109.62
2019-05-13T02:15:56.629Z,100104.97
2019-05-13T02:18:27.240Z,100106.16
2019-05-13T02:20:58.524Z,100107.50
2019-05-13T02:23:29.837Z,100108.21
2019-05-13T02:26:00.757Z,100113.65
2019-05-13T02:28:33.387Z,100114.52
2019-05-13T02:31:03.776Z,100114.83
2019-05-13T02:33:35.023Z,100110.48
2019-05-13T02:36:06.044Z,100112.02
2019-05-13T02:38:36.698Z,100109.33
2019-05-13T02:41:07.439Z,100105.97
2019-05-13T02:43:41.338Z,100102.49
2019-05-13T02:46:12.871Z,100096.95
2019-05-13T02:48:42.906Z,100104.81
2019-05-13T02:51:13.648Z,100103.10
2019-05-13T02:53:44.791Z,100106.65
2019-05-13T02:56:15.519Z,100103.66
2019-05-13T02:58:46.062Z,100107.12
2019-05-13T03:01:16.706Z,100110.39
2019-05-13T03:03:47.399Z,100111.72
2019-05-13T03:06:18.021Z,100109.80
2019-05-13T03:08:53.248Z,100106.33
2019-05-13T03:11:22.753Z,100106.50
2019-05-13T03:13:54.871Z,100109.98
2019-05-13T03:16:27.131Z,100119.32
2019-05-13T03:18:57.756Z,100119.78
2019-05-13T03:21:32.444Z,100125.73
2019-05-13T03:24:03.464Z,100118.81
2019-05-13T03:26:34.645Z,100124.35
2019-05-13T03:29:06.743Z,100126.29
2019-05-13T03:31:37.466Z,100132.46
2019-05-13T03:34:08.344Z,100127.72
2019-05-13T03:36:44.915Z,100126.00
2019-05-13T03:39:15.905Z,100120.72
2019-05-13T03:41:46.563Z,100125.91
2019-05-13T03:44:19.068Z,100124.98
2019-05-13T03:46:52.883Z,100131.09
2019-05-13T03:49:26.751Z,100135.73
2019-05-13T03:51:57.939Z,100132.36
2019-05-13T03:54:32.921Z,100137.99
2019-05-13T03:57:04.208Z,100139.73
2019-05-13T03:59:35.110Z,100145.22
2019-05-13T04:02:05.732Z,100144.88
2019-05-13T04:04:36.252Z,100142.58
2019-05-13T04:07:06.965Z,100145.12
2019-05-13T04:09:37.665Z,100145.09
2019-05-13T04:12:08.275Z,100143.09
2019-05-13T04:14:42.149Z,100145.94
2019-05-13T04:17:12.629Z,100145.06
2019-05-13T04:19:43.813Z,100136.22
2019-05-13T04:22:16.012Z,100141.64
2019-05-13T04:24:46.614Z,100145.83
2019-05-13T04:27:17.353Z,100136.17
2019-05-13T04:29:48.485Z,100132.80
2019-05-13T04:32:19.069Z,100137.06
2019-05-13T04:34:52.842Z,100140.70
2019-05-13T04:37:22.740Z,100130.42
2019-05-13T04:39:56.282Z,100132.30
2019-05-13T04:42:25.853Z,100141.34
2019-05-13T04:44:56.585Z,100139.60
2019-05-13T04:47:27.336Z,100140.44
2019-05-13T04:49:58.758Z,100141.87
2019-05-13T04:52:33.049Z,100148.50
2019-05-13T04:55:03.522Z,100141.70
2019-05-13T04:57:34.338Z,100142.13
2019-05-13T05:00:07.700Z,100146.30
2019-05-13T05:02:58.255Z,100148.83
2019-05-13T05:05:52.740Z,100149.23
2019-05-13T05:08:28.318Z,100144.00
2019-05-13T05:11:33.889Z,100144.02
2019-05-13T05:14:22.241Z,100150.97
2019-05-13T05:17:16.733Z,100146.38
2019-05-13T05:19:55.546Z,100147.91
2019-05-13T05:22:48.768Z,100142.75
2019-05-13T05:25:25.185Z,100146.11
2019-05-13T05:28:21.763Z,100148.28
2019-05-13T05:31:28.267Z,100154.12
2019-05-13T05:34:14.010Z,100156.36
2019-05-13T05:37:02.757Z,100158.13
2019-05-13T05:39:33.397Z,100166.91
2019-05-13T05:42:05.915Z,100170.70
2019-05-13T05:44:42.196Z,100173.93
2019-05-13T05:47:21.203Z,100175.96
2019-05-13T05:49:56.150Z,100172.41
2019-05-13T05:52:32.615Z,100175.81
2019-05-13T05:55:03.956Z,100178.08
2019-05-13T05:57:42.336Z,100175.36
2019-05-13T06:00:17.230Z,100178.47
2019-05-13T06:03:21.925Z,100180.00
2019-05-13T06:05:57.300Z,100171.14
2019-05-13T06:08:32.297Z,100174.58
2019-05-13T06:11:04.561Z,100165.98
2019-05-13T06:13:36.775Z,100156.77
2019-05-13T06:16:09.165Z,100156.77
2019-05-13T06:18:41.533Z,100160.67
2019-05-13T06:21:12.373Z,100167.88
2019-05-13T06:23:44.697Z,100165.89
2019-05-13T06:26:17.144Z,100164.96
2019-05-13T06:28:48.040Z,100167.35
2019-05-13T06:31:24.301Z,100169.83
2019-05-13T06:33:55.124Z,100164.08
2019-05-13T06:36:26.715Z,100173.70
2019-05-13T06:39:02.227Z,100167.16
2019-05-13T06:41:32.557Z,100163.53
2019-05-13T06:44:05.115Z,100169.79
2019-05-13T06:46:36.251Z,100169.33
2019-05-13T06:49:06.868Z,100163.63
2019-05-13T06:51:37.516Z,100160.41
2019-05-13T06:54:08.139Z,100151.78
2019-05-13T06:56:38.781Z,100153.42
2019-05-13T06:59:11.710Z,100147.59
2019-05-13T07:01:42.448Z,100151.81
2019-05-13T07:04:13.268Z,100149.81
2019-05-13T07:06:43.875Z,100143.53
2019-05-13T07:09:14.493Z,100142.86
2019-05-13T07:11:45.245Z,100143.13
2019-05-13T07:14:16.071Z,100141.66
2019-05-13T07:16:46.881Z,100148.22
2019-05-13T07:19:17.510Z,100145.06
2019-05-13T07:21:48.128Z,100143.72
2019-05-13T07:24:21.257Z,100144.97
2019-05-13T07:26:52.358Z,100143.27
2019-05-13T07:29:24.281Z,100148.67
2019-05-13T07:31:55.022Z,100146.22
2019-05-13T07:34:25.687Z,100144.63
2019-05-13T07:36:56.426Z,100148.47
2019-05-13T07:39:27.067Z,100145.27
2019-05-13T07:41:57.897Z,100146.95
2019-05-13T07:44:28.520Z,100137.14
2019-05-13T07:46:59.179Z,100149.11
2019-05-13T07:49:31.551Z,100146.15
2019-05-13T07:52:02.730Z,100144.23
2019-05-13T07:54:33.426Z,100142.97
2019-05-13T07:57:04.031Z,100134.50
2019-05-13T07:59:36.215Z,100137.09
2019-05-13T08:02:06.852Z,100139.00
2019-05-13T08:04:42.085Z,100147.37
2019-05-13T08:07:12.998Z,100149.94
2019-05-13T08:09:43.686Z,100151.75
2019-05-13T08:12:14.835Z,100144.45
2019-05-13T08:14:45.588Z,100140.22
2019-05-13T08:17:16.238Z,100139.05
2019-05-13T08:19:46.942Z,100135.17
2019-05-13T08:22:17.622Z,100136.43
2019-05-13T08:24:52.031Z,100132.73
2019-05-13T08:27:30.421Z,100139.04
2019-05-13T08:29:54.084Z,100129.94
2019-05-13T08:32:25.266Z,100133.25
2019-05-13T08:35:01.724Z,100134.55
2019-05-13T08:37:28.266Z,100130.19
2019-05-13T08:40:01.355Z,100130.69
2019-05-13T08:42:32.291Z,100128.95
2019-05-13T08:45:03.091Z,100132.16
2019-05-13T08:47:33.710Z,100134.06
2019-05-13T08:50:05.162Z,100137.50
2019-05-13T08:52:35.739Z,100136.09
2019-05-13T08:55:07.952Z,100134.31
2019-05-13T08:57:38.578Z,100137.39
2019-05-13T09:00:09.402Z,100129.66
2019-05-13T09:02:42.019Z,100133.17
2019-05-13T09:05:13.935Z,100137.14
2019-05-13T09:07:44.788Z,100131.70
2019-05-13T09:10:15.906Z,100137.95
2019-05-13T09:12:48.857Z,100130.71
2019-05-13T09:15:22.297Z,100127.27
2019-05-13T09:17:51.832Z,100132.30
2019-05-13T09:20:22.405Z,100127.36
2019-05-13T09:22:53.026Z,100119.78
2019-05-13T09:25:23.787Z,100127.88
2019-05-13T09:27:54.377Z,100127.66
2019-05-13T09:30:27.281Z,100125.79
2019-05-13T09:32:57.359Z,100109.01
2019-05-13T09:35:28.113Z,100116.37
2019-05-13T09:37:58.823Z,100125.38
2019-05-13T09:40:31.430Z,100127.20
2019-05-13T09:43:02.648Z,100118.87
2019-05-13T09:45:33.774Z,100123.59
2019-05-13T09:48:04.674Z,100126.00
2019-05-13T09:50:37.000Z,100120.93
2019-05-13T09:53:07.653Z,100121.47
2019-05-13T09:55:38.366Z,100121.84
2019-05-13T09:58:11.675Z,100122.20
2019-05-13T10:00:42.646Z,100119.13
2019-05-13T10:03:14.149Z,100125.83
2019-05-13T10:05:45.039Z,100124.55
2019-05-13T10:08:15.698Z,100114.10
2019-05-13T10:10:46.412Z,100115.80
2019-05-13T10:13:17.263Z,100110.30
2019-05-13T10:15:48.860Z,100114.17
2019-05-13T10:18:21.890Z,100105.86
2019-05-13T10:20:58.251Z,100104.19
2019-05-13T10:23:28.275Z,100102.90
2019-05-13T10:26:04.648Z,100107.92
2019-05-13T10:28:35.669Z,100102.75
2019-05-13T10:31:06.833Z,100107.38
2019-05-13T10:33:37.787Z,100111.70
2019-05-13T10:36:08.457Z,100109.62
2019-05-13T10:38:41.314Z,100114.11
2019-05-13T10:41:12.047Z,100126.25
2019-05-13T10:55:24.647Z,100108.17
2019-05-13T10:57:55.277Z,100107.96
2019-05-13T11:00:37.095Z,100107.98
2019-05-13T11:03:07.700Z,100105.59
2019-05-13T11:05:42.102Z,100107.70
2019-05-13T11:08:11.242Z,100106.89
2019-05-13T11:10:42.238Z,100104.02
2019-05-13T11:13:13.863Z,100108.84
2019-05-13T11:15:45.323Z,100103.17
2019-05-13T11:18:19.452Z,100101.41
2019-05-13T11:20:49.420Z,100093.44
2019-05-13T11:23:22.956Z,100091.48
2019-05-13T11:25:52.596Z,100086.61
2019-05-13T11:28:23.341Z,100084.70
2019-05-13T11:30:59.338Z,100080.05
2019-05-13T11:35:31.985Z,100077.57
2019-05-13T11:38:02.720Z,100075.81
2019-05-13T11:40:33.374Z,100079.38
2019-05-13T11:43:04.023Z,100080.96
2019-05-13T11:45:34.738Z,100076.69
2019-05-13T11:48:05.570Z,100071.03
2019-05-13T11:50:36.561Z,100071.27
2019-05-13T11:53:30.164Z,100067.02
2019-05-13T11:55:42.509Z,100064.09
2019-05-13T11:58:14.159Z,100058.09
2019-05-13T12:00:53.214Z,100059.81
2019-05-13T12:03:23.402Z,100062.19
2019-05-13T12:05:55.190Z,100055.80
2019-05-13T12:08:27.229Z,100063.53
2019-05-13T12:10:57.989Z,100057.12
2019-05-13T12:13:28.814Z,100054.34
2019-05-13T12:16:03.271Z,100050.68
